Time;durP1;ratioP1;P1;durP2;ratioP2;P2;SDS_P1;SDS_P2;PMS_P1;PMS_P2;Temp;Humidity;BMP_temperature;BMP_pressure;BME280_temperature;BME280_humidity;BME280_pressure;Samples;Min_cycle;Max_cycle;Signal;HPM_P1;HPM_P2
2022/06/21 06:34:24;;;;;;;;;;;;;;;24.76;32.88;98694.78;4923905;26;19977;-89
2022/06/21 06:36:53;;;;;;;;;;;;;;;25.28;32.11;98692.97;4407229;32;33332;-88
2022/06/21 06:39:25;;;;;;;;;;;;;;;25.59;32.01;98694.78;4407589;32;34024;-87
2022/06/21 06:41:52;;;;;;;;;;;;;;;25.10;33.33;98700.13;4395058;32;34269;-88
2022/06/21 06:47:18;;;;;;;;;;;;;;;25.08;32.06;98702.84;4656250;26;20350;-87
2022/06/21 06:49:50;;;;;;;;;;;;;;;24.86;32.20;98696.97;4419732;32;34021;-88
2022/06/21 06:52:22;;;;;;;;;;;;;;;25.01;32.06;98701.47;4407830;32;34189;-88
2022/06/21 06:54:55;;;;;;;;;;;;;;;24.30;33.92;98708.69;4379960;32;33280;-87
2022/06/21 06:57:24;;;;;;;;;;;;;;;25.08;32.38;98710.81;4399190;32;32797;-89
2022/06/21 06:59:52;;;;;;;;;;;;;;;25.60;30.04;98692.03;4407778;32;34973;-92
2022/06/21 07:02:41;;;;;;;;;;;;;;;25.68;30.46;98719.03;4404245;32;35163;-85
2022/06/21 07:05:32;;;;;;;;;;;;;;;24.63;32.46;98717.59;4420550;32;33593;-93
2022/06/21 07:08:01;;;;;;;;;;;;;;;23.94;33.75;98713.09;4404858;32;33436;-93
2022/06/21 07:10:28;;;;;;;;;;;;;;;24.72;31.91;98703.84;4407728;32;34831;-88
2022/06/21 07:12:56;;;;;;;;;;;;;;;25.23;29.53;98695.91;4421620;32;34834;-89
2022/06/21 07:15:31;;;;;;;;;;;;;;;24.49;30.99;98714.78;4408655;32;34532;-90
2022/06/21 07:17:59;;;;;;;;;;;;;;;23.87;31.03;98727.56;4397014;32;32522;-92
2022/06/21 07:20:37;;;;;;;;;;;;;;;23.29;31.98;98733.75;4409205;32;34532;-85
2022/06/21 07:23:31;;;;;;;;;;;;;;;24.02;32.20;98748.00;4396803;32;33311;-91
2022/06/21 07:26:00;;;;;;;;;;;;;;;24.49;31.80;98731.53;4406542;32;33819;-90
2022/06/21 07:28:42;;;;;;;;;;;;;;;24.61;30.46;98729.19;4383716;32;32293;-92
2022/06/21 07:31:14;;;;;;;;;;;;;;;24.13;31.21;98739.53;4408857;32;33943;-88
2022/06/21 07:33:43;;;;;;;;;;;;;;;24.89;28.52;98734.81;4408817;32;34334;-89
2022/06/21 07:36:24;;;;;;;;;;;;;;;25.55;28.92;98727.75;4396631;32;33917;-90
2022/06/21 07:38:52;;;;;;;;;;;;;;;24.96;28.49;98737.97;4396267;32;31731;-88
2022/06/21 07:41:52;;;;;;;;;;;;;;;25.05;29.29;98745.44;4396079;32;33323;-87
2022/06/21 07:44:21;;;;;;;;;;;;;;;26.25;26.10;98741.50;4404983;32;34157;-84
2022/06/21 07:46:56;;;;;;;;;;;;;;;25.78;26.42;98745.06;4419920;32;34206;-87
2022/06/21 07:49:28;;;;;;;;;;;;;;;25.06;28.34;98749.81;4408692;32;33101;-88
2022/06/21 07:51:57;;;;;;;;;;;;;;;24.71;28.11;98741.91;4408127;32;34684;-90
2022/06/21 07:54:26;;;;;;;;;;;;;;;25.50;28.97;98738.63;4408696;32;34313;-87
2022/06/21 07:56:55;;;;;;;;;;;;;;;25.34;28.09;98745.69;4407988;32;34496;-88
2022/06/21 07:59:31;;;;;;;;;;;;;;;25.92;28.32;98742.53;4407025;32;33003;-88
2022/06/21 08:07:40;;;;;;;;;;;;;;;25.14;28.40;98744.97;4410165;32;33918;-87
2022/06/21 08:10:10;;;;;;;;;;;;;;;25.77;26.70;98744.19;4408392;32;33284;-87
2022/06/21 08:12:37;;;;;;;;;;;;;;;26.31;27.01;98749.13;4408466;32;33780;-87
2022/06/21 08:15:05;;;;;;;;;;;;;;;26.38;26.73;98747.84;4408013;32;35321;-84
2022/06/21 08:17:36;;;;;;;;;;;;;;;25.47;27.01;98773.28;4422338;32;34058;-89
2022/06/21 08:20:08;;;;;;;;;;;;;;;24.85;28.17;98765.06;4408653;32;33479;-90
2022/06/21 08:22:38;;;;;;;;;;;;;;;25.19;28.32;98773.91;4396786;32;34972;-91
2022/06/21 08:25:24;;;;;;;;;;;;;;;25.19;26.73;98764.19;4422120;32;33824;-87
2022/06/21 08:27:51;;;;;;;;;;;;;;;25.37;27.55;98767.63;4422568;32;34739;-87
2022/06/21 08:30:20;;;;;;;;;;;;;;;25.58;27.68;98775.38;4408564;32;31908;-87
2022/06/21 08:32:50;;;;;;;;;;;;;;;26.15;27.43;98775.75;4408731;32;34221;-88
2022/06/21 08:35:23;;;;;;;;;;;;;;;26.32;25.83;98764.13;4409171;32;35031;-87
2022/06/21 08:37:58;;;;;;;;;;;;;;;25.86;26.29;98761.44;4422596;32;33630;-87
2022/06/21 08:40:32;;;;;;;;;;;;;;;26.10;26.27;98768.03;4422876;32;32964;-88
2022/06/21 08:42:59;;;;;;;;;;;;;;;26.02;26.12;98767.59;4408828;32;34856;-88
2022/06/21 08:45:41;;;;;;;;;;;;;;;26.65;25.54;98769.31;4422247;32;34941;-87
2022/06/21 08:48:27;;;;;;;;;;;;;;;26.67;27.23;98778.91;4422622;32;34165;-85
2022/06/21 08:50:59;;;;;;;;;;;;;;;26.31;26.71;98781.87;4422635;32;33482;-86
2022/06/21 08:53:36;;;;;;;;;;;;;;;27.08;25.49;98777.34;4396038;32;34252;-87
2022/06/21 08:56:08;;;;;;;;;;;;;;;27.27;25.04;98769.97;4408120;32;35198;-89
2022/06/21 08:58:52;;;;;;;;;;;;;;;26.50;25.51;98765.75;4395539;32;33688;-88
2022/06/21 09:01:38;;;;;;;;;;;;;;;27.87;23.41;98769.75;4408311;32;32894;-89
2022/06/21 09:04:14;;;;;;;;;;;;;;;27.21;24.61;98767.72;4422188;32;33861;-87
2022/06/21 09:06:44;;;;;;;;;;;;;;;26.97;25.69;98772.69;4407992;32;35198;-87
2022/06/21 09:09:12;;;;;;;;;;;;;;;26.52;25.89;98771.84;4422070;32;34001;-86
2022/06/21 09:11:45;;;;;;;;;;;;;;;26.68;25.39;98772.63;4421878;32;34222;-88
2022/06/21 09:14:22;;;;;;;;;;;;;;;27.06;24.00;98769.47;4421900;32;34220;-87
2022/06/21 09:17:09;;;;;;;;;;;;;;;27.26;24.49;98770.09;4420830;32;34393;-86
2022/06/21 09:19:43;;;;;;;;;;;;;;;26.21;26.11;98772.72;4421999;32;34416;-87
2022/06/21 09:22:26;;;;;;;;;;;;;;;27.61;24.56;98775.84;4408072;32;33255;-89
2022/06/21 09:25:17;;;;;;;;;;;;;;;27.34;25.03;98773.97;4408201;32;33931;-85
2022/06/21 09:27:49;;;;;;;;;;;;;;;27.12;25.68;98794.88;4407992;32;34264;-87
2022/06/21 09:30:16;;;;;;;;;;;;;;;27.75;23.65;98785.69;4408192;32;34215;-89
2022/06/21 09:32:44;;;;;;;;;;;;;;;26.83;24.12;98786.84;4421828;32;34070;-88
2022/06/21 09:35:17;;;;;;;;;;;;;;;27.41;24.27;98785.09;4421375;32;34398;-89
2022/06/21 09:38:03;;;;;;;;;;;;;;;27.43;24.52;98783.22;4408133;32;34241;-85
2022/06/21 09:40:38;;;;;;;;;;;;;;;27.27;24.53;98796.59;4421849;32;33803;-87
2022/06/21 09:43:22;;;;;;;;;;;;;;;26.66;23.52;98787.81;4408610;32;33463;-88
2022/06/21 09:45:55;;;;;;;;;;;;;;;26.42;24.19;98781.25;4421791;32;34865;-87
2022/06/21 09:48:35;;;;;;;;;;;;;;;27.09;23.50;98784.41;4407822;32;33972;-88
2022/06/21 09:51:40;;;;;;;;;;;;;;;26.69;24.80;98777.00;4421770;32;34019;-85
2022/06/21 09:54:23;;;;;;;;;;;;;;;27.66;23.71;98779.09;4421742;32;32828;-89
2022/06/21 09:56:59;;;;;;;;;;;;;;;26.93;23.38;98774.69;4407410;32;33111;-85
2022/06/21 09:59:29;;;;;;;;;;;;;;;27.58;22.43;98782.25;4407815;32;34412;-86
2022/06/21 10:01:56;;;;;;;;;;;;;;;27.37;24.08;98767.63;4407860;32;33745;-86
2022/06/21 10:04:36;;;;;;;;;;;;;;;27.60;24.65;98768.81;4421680;32;33384;-85
2022/06/21 10:07:03;;;;;;;;;;;;;;;27.18;24.04;98770.56;4421587;32;35108;-85
2022/06/21 10:09:40;;;;;;;;;;;;;;;27.33;23.92;98784.72;4407367;32;34103;-88
2022/06/21 10:12:13;;;;;;;;;;;;;;;27.69;25.50;98780.69;4421948;32;35198;-90
2022/06/21 10:14:52;;;;;;;;;;;;;;;28.13;24.35;98773.37;4421516;32;34233;-88
2022/06/21 10:17:22;;;;;;;;;;;;;;;27.20;25.10;98768.66;4407969;32;34270;-89
2022/06/21 10:20:02;;;;;;;;;;;;;;;27.35;24.85;98770.38;4422214;32;33958;-89
2022/06/21 10:22:31;;;;;;;;;;;;;;;27.91;24.08;98778.41;4407718;32;34006;-88
2022/06/21 10:25:04;;;;;;;;;;;;;;;27.19;24.48;98768.75;4393869;32;32305;-85
2022/06/21 10:27:39;;;;;;;;;;;;;;;28.01;23.70;98773.34;4394903;32;32523;-86
2022/06/21 10:30:06;;;;;;;;;;;;;;;28.41;24.56;98774.25;4407660;32;35457;-89
2022/06/21 10:32:40;;;;;;;;;;;;;;;28.50;22.79;98781.66;4421228;32;34479;-87
2022/06/21 10:35:07;;;;;;;;;;;;;;;28.22;23.07;98787.91;4421201;32;33126;-91
2022/06/21 10:37:40;;;;;;;;;;;;;;;28.02;22.25;98786.56;4421014;32;34665;-90
2022/06/21 10:40:23;;;;;;;;;;;;;;;28.02;23.15;98785.72;4421385;32;34393;-91
2022/06/21 10:43:08;;;;;;;;;;;;;;;28.28;21.13;98771.53;4421161;32;33829;-89
2022/06/21 10:45:54;;;;;;;;;;;;;;;27.50;23.17;98779.19;4392003;32;33505;-89
2022/06/21 10:48:30;;;;;;;;;;;;;;;28.16;21.93;98772.34;4406075;32;34363;-86
2022/06/21 10:51:15;;;;;;;;;;;;;;;27.51;22.60;98780.06;4411443;32;35382;-89
2022/06/21 10:53:52;;;;;;;;;;;;;;;28.33;22.09;98788.06;4421413;32;33919;-92
2022/06/21 10:59:15;;;;;;;;;;;;;;;27.67;22.97;98778.16;4406417;32;32322;-89
2022/06/21 11:01:42;;;;;;;;;;;;;;;28.08;23.05;98785.31;4421510;32;33897;-88
2022/06/21 11:04:09;;;;;;;;;;;;;;;28.40;23.16;98785.88;4421745;32;34454;-90
2022/06/21 11:06:36;;;;;;;;;;;;;;;27.91;22.40;98774.87;4408221;32;33995;-89
2022/06/21 11:09:13;;;;;;;;;;;;;;;28.54;22.58;98787.66;4406778;32;34853;-87
2022/06/21 11:11:42;;;;;;;;;;;;;;;28.00;23.16;98783.16;4396791;32;34167;-88
2022/06/21 11:14:19;;;;;;;;;;;;;;;28.42;23.51;98778.66;4406669;32;34535;-85
2022/06/21 11:16:46;;;;;;;;;;;;;;;28.99;22.00;98782.84;4406717;32;33753;-87
2022/06/21 11:19:14;;;;;;;;;;;;;;;28.06;23.06;98789.87;4420733;32;35039;-92
2022/06/21 11:21:56;;;;;;;;;;;;;;;28.00;22.79;98803.63;4420680;32;34273;-87
2022/06/21 11:24:27;;;;;;;;;;;;;;;27.86;23.65;98785.84;4395109;32;838766;-87
2022/06/21 11:27:14;;;;;;;;;;;;;;;27.85;23.43;98785.00;4421285;32;33436;-90
2022/06/21 11:29:59;;;;;;;;;;;;;;;28.29;21.81;98794.56;4418052;32;34155;-91
2022/06/21 11:32:34;;;;;;;;;;;;;;;28.24;22.25;98795.81;4415416;32;34258;-88
2022/06/21 11:35:09;;;;;;;;;;;;;;;29.68;21.35;98786.88;4406560;32;34033;-89
2022/06/21 11:37:39;;;;;;;;;;;;;;;28.97;23.58;98785.56;4405832;32;33395;-87
2022/06/21 11:40:16;;;;;;;;;;;;;;;28.31;23.21;98790.00;4430326;32;34024;-85
2022/06/21 11:42:49;;;;;;;;;;;;;;;27.20;23.02;98794.41;4435236;32;34194;-84
2022/06/21 11:45:16;;;;;;;;;;;;;;;28.43;21.57;98791.03;4408613;32;33399;-88
2022/06/21 11:47:44;;;;;;;;;;;;;;;28.35;23.24;98795.97;4412369;32;32744;-86
2022/06/21 11:50:11;;;;;;;;;;;;;;;28.66;21.61;98791.28;4405233;32;35560;-89
2022/06/21 11:52:50;;;;;;;;;;;;;;;27.96;23.82;98792.31;4391470;32;34883;-85
2022/06/21 11:55:18;;;;;;;;;;;;;;;28.35;22.71;98793.31;4391482;32;34880;-84
2022/06/21 11:57:58;;;;;;;;;;;;;;;28.71;23.24;98799.84;4391514;32;33291;-86
2022/06/21 12:00:37;;;;;;;;;;;;;;;28.27;22.67;98800.97;4393028;32;34254;-80
2022/06/21 12:03:07;;;;;;;;;;;;;;;28.71;21.66;98800.69;4380860;32;33595;-86
2022/06/21 12:05:42;;;;;;;;;;;;;;;28.45;22.78;98797.13;4393403;32;34970;-86
2022/06/21 12:08:32;;;;;;;;;;;;;;;28.23;22.04;98799.47;4393378;32;32895;-86
2022/06/21 12:11:01;;;;;;;;;;;;;;;28.50;22.05;98780.81;4394321;32;32937;-86
2022/06/21 12:13:48;;;;;;;;;;;;;;;29.25;20.74;98781.03;4395759;32;33736;-87
2022/06/21 12:16:20;;;;;;;;;;;;;;;28.57;21.43;98787.44;4416255;32;34324;-88
2022/06/21 12:18:51;;;;;;;;;;;;;;;29.18;20.66;98791.28;4408658;32;34211;-90
2022/06/21 12:21:20;;;;;;;;;;;;;;;28.99;21.45;98783.69;4408519;32;33727;-91
2022/06/21 12:24:04;;;;;;;;;;;;;;;29.01;21.58;98787.09;4408544;32;34502;-86
2022/06/21 12:26:31;;;;;;;;;;;;;;;28.60;21.82;98784.53;4407212;32;35066;-92
2022/06/21 12:28:59;;;;;;;;;;;;;;;29.33;21.36;98770.66;4393775;32;33498;-92
2022/06/21 12:31:33;;;;;;;;;;;;;;;28.90;22.30;98778.09;4394082;32;34172;-89
2022/06/21 12:34:10;;;;;;;;;;;;;;;29.39;21.15;98767.53;4394799;32;33807;-87
2022/06/21 12:36:48;;;;;;;;;;;;;;;28.70;22.99;98782.13;4395818;32;32839;-89
2022/06/21 12:39:21;;;;;;;;;;;;;;;29.30;21.96;98773.53;4422181;32;33543;-88
2022/06/21 12:42:03;;;;;;;;;;;;;;;29.79;21.59;98764.72;4422212;32;34171;-91
2022/06/21 12:44:49;;;;;;;;;;;;;;;29.33;21.63;98768.00;4408241;32;35106;-83
2022/06/21 12:47:20;;;;;;;;;;;;;;;29.08;21.30;98776.84;4421983;32;34461;-87
2022/06/21 12:50:04;;;;;;;;;;;;;;;29.38;21.45;98762.31;4408356;32;33979;-89
2022/06/21 12:52:34;;;;;;;;;;;;;;;28.69;21.99;98757.28;4421816;32;34197;-86
2022/06/21 12:55:15;;;;;;;;;;;;;;;28.71;22.78;98767.81;4408286;32;33941;-89
2022/06/21 12:57:47;;;;;;;;;;;;;;;29.15;21.77;98756.78;4422191;32;34483;-85
2022/06/21 13:00:21;;;;;;;;;;;;;;;28.24;22.14;98759.37;4421995;32;33638;-89
2022/06/21 13:02:55;;;;;;;;;;;;;;;28.13;21.10;98761.88;4408065;32;34070;-90
2022/06/21 13:05:26;;;;;;;;;;;;;;;28.05;20.23;98770.38;4408256;32;34486;-88
2022/06/21 13:08:12;;;;;;;;;;;;;;;27.93;20.54;98765.84;4408416;32;35079;-85
2022/06/21 13:10:39;;;;;;;;;;;;;;;27.45;20.98;98767.13;4408263;32;33714;-89
2022/06/21 13:13:12;;;;;;;;;;;;;;;28.31;21.65;98763.34;4421317;32;34207;-83
2022/06/21 13:15:43;;;;;;;;;;;;;;;28.77;21.60;98772.75;4421813;32;35150;-94
2022/06/21 13:18:17;;;;;;;;;;;;;;;27.90;22.68;98763.38;4407458;32;34119;-88
2022/06/21 13:21:04;;;;;;;;;;;;;;;28.14;23.02;98760.91;4422046;32;34353;-93
2022/06/21 13:23:49;;;;;;;;;;;;;;;28.70;20.95;98755.44;4421227;32;33872;-89
2022/06/21 13:26:20;;;;;;;;;;;;;;;28.82;22.10;98755.44;4399767;32;34228;-85
2022/06/21 13:28:54;;;;;;;;;;;;;;;28.34;21.24;98759.63;4421483;32;33907;-88
2022/06/21 13:31:24;;;;;;;;;;;;;;;29.27;20.73;98757.75;4407796;32;34044;-84
2022/06/21 13:33:53;;;;;;;;;;;;;;;29.05;20.74;98767.25;4421708;32;35032;-87
2022/06/21 13:36:41;;;;;;;;;;;;;;;29.24;21.24;98757.94;4407877;32;35195;-87
2022/06/21 13:39:14;;;;;;;;;;;;;;;28.94;21.71;98767.09;4421556;32;34037;-90
2022/06/21 13:44:43;;;;;;;;;;;;;;;28.98;22.26;98760.66;4410501;32;33987;-92
2022/06/21 13:47:15;;;;;;;;;;;;;;;28.57;22.40;98764.28;4421411;32;34139;-89
2022/06/21 13:49:43;;;;;;;;;;;;;;;28.75;22.89;98767.53;4407293;32;34852;-87
2022/06/21 13:52:17;;;;;;;;;;;;;;;28.43;22.94;98768.84;4407982;32;33535;-89
2022/06/21 13:55:13;;;;;;;;;;;;;;;29.31;21.96;98757.41;4422621;32;34150;-87
2022/06/21 13:57:53;;;;;;;;;;;;;;;28.97;21.62;98750.87;4408312;32;35084;-88
2022/06/21 14:00:23;;;;;;;;;;;;;;;28.39;23.40;98757.53;4393864;32;32968;-89
2022/06/21 14:02:52;;;;;;;;;;;;;;;28.06;23.09;98748.09;4407198;32;34368;-85
2022/06/21 14:05:40;;;;;;;;;;;;;;;28.13;23.41;98743.22;4413457;32;33945;-85
2022/06/21 14:08:08;;;;;;;;;;;;;;;28.95;22.20;98747.47;4421485;32;34341;-86
2022/06/21 14:10:37;;;;;;;;;;;;;;;29.14;22.56;98735.56;4407532;32;33919;-86
2022/06/21 14:13:07;;;;;;;;;;;;;;;29.57;21.85;98730.66;4421544;32;34089;-85
2022/06/21 14:15:35;;;;;;;;;;;;;;;30.10;20.02;98728.56;4392634;32;35140;-91
2022/06/21 14:18:21;;;;;;;;;;;;;;;29.38;20.75;98720.44;4420735;32;33872;-84
2022/06/21 14:20:51;;;;;;;;;;;;;;;29.30;20.82;98728.16;4421074;32;34936;-95
2022/06/21 14:23:21;;;;;;;;;;;;;;;28.33;22.53;98726.75;4420827;32;33662;-85
2022/06/21 14:25:59;;;;;;;;;;;;;;;28.63;21.74;98728.34;4421187;32;34244;-92
2022/06/21 14:28:26;;;;;;;;;;;;;;;28.31;22.53;98726.00;4421166;32;34914;-90
2022/06/21 14:31:04;;;;;;;;;;;;;;;28.56;23.05;98725.25;4420784;32;34107;-89
2022/06/21 14:33:53;;;;;;;;;;;;;;;29.63;21.14;98708.03;4407387;32;34069;-82
2022/06/21 14:36:29;;;;;;;;;;;;;;;29.05;21.04;98711.19;4407642;32;33651;-91
2022/06/21 14:39:08;;;;;;;;;;;;;;;29.11;22.40;98709.91;4421270;32;33853;-87
2022/06/21 14:41:37;;;;;;;;;;;;;;;28.75;22.00;98716.84;4420963;32;35230;-88
2022/06/21 14:44:06;;;;;;;;;;;;;;;29.45;20.84;98710.19;4421754;32;33036;-89
2022/06/21 14:46:35;;;;;;;;;;;;;;;29.45;21.71;98712.84;4406827;32;34290;-89
2022/06/21 14:49:18;;;;;;;;;;;;;;;29.80;21.80;98713.00;4407197;32;34381;-87
2022/06/21 14:51:48;;;;;;;;;;;;;;;28.95;20.16;98706.59;4407032;32;33382;-93
2022/06/21 14:54:37;;;;;;;;;;;;;;;29.35;20.28;98720.66;4407518;32;33424;-86
2022/06/21 14:57:13;;;;;;;;;;;;;;;28.98;21.54;98706.37;4407253;32;33798;-90
2022/06/21 14:59:52;;;;;;;;;;;;;;;29.28;21.78;98706.91;4420897;32;33860;-84
2022/06/21 15:02:23;;;;;;;;;;;;;;;29.06;21.08;98699.56;4420778;32;33985;-90
2022/06/21 15:04:56;;;;;;;;;;;;;;;29.29;21.78;98713.09;4421142;32;33551;-89
2022/06/21 15:07:41;;;;;;;;;;;;;;;29.06;21.92;98702.25;4421149;32;34817;-90
2022/06/21 15:10:21;;;;;;;;;;;;;;;29.38;20.90;98708.91;4420755;32;34506;-95
2022/06/21 15:13:04;;;;;;;;;;;;;;;29.08;21.43;98705.66;4420750;32;34379;-92
2022/06/21 15:15:37;;;;;;;;;;;;;;;29.42;21.41;98697.91;4420996;32;32933;-89
2022/06/21 15:18:15;;;;;;;;;;;;;;;29.22;21.00;98709.16;4407122;32;34629;-85
2022/06/21 15:21:00;;;;;;;;;;;;;;;29.36;21.65;98706.37;4408275;32;35426;-83
2022/06/21 15:23:35;;;;;;;;;;;;;;;29.30;21.30;98717.47;4407048;32;34219;-84
2022/06/21 15:26:10;;;;;;;;;;;;;;;29.05;22.19;98711.19;4394388;32;34070;-84
2022/06/21 15:28:39;;;;;;;;;;;;;;;28.93;22.52;98709.34;4406570;32;34642;-84
2022/06/21 15:31:11;;;;;;;;;;;;;;;29.45;21.84;98711.03;4406842;32;34443;-90
2022/06/21 15:33:47;;;;;;;;;;;;;;;29.40;21.79;98715.88;4407139;32;34954;-94
2022/06/21 15:36:33;;;;;;;;;;;;;;;29.25;21.97;98708.94;4422808;32;33488;-88
2022/06/21 15:39:08;;;;;;;;;;;;;;;29.36;22.37;98706.37;4421869;32;35016;-87
2022/06/21 15:41:38;;;;;;;;;;;;;;;29.14;22.91;98706.19;4422754;32;34381;-84
2022/06/21 15:44:24;;;;;;;;;;;;;;;28.69;23.56;98714.59;4408739;32;34071;-91
2022/06/21 15:50:12;;;;;;;;;;;;;;;28.49;23.78;98720.41;4422546;32;33237;-84
2022/06/21 15:52:32;;;;;;;;;;;;;;;28.89;22.85;98712.34;4411300;32;35246;-89
2022/06/21 15:55:02;;;;;;;;;;;;;;;28.68;23.27;98715.56;4408385;32;35077;-85
2022/06/21 15:57:41;;;;;;;;;;;;;;;28.95;22.87;98711.94;4422716;32;34072;-87
2022/06/21 16:00:15;;;;;;;;;;;;;;;28.73;22.99;98715.22;4421983;32;33993;-85
2022/06/21 16:03:02;;;;;;;;;;;;;;;29.54;22.48;98707.69;4422629;32;35429;-88
2022/06/21 16:05:48;;;;;;;;;;;;;;;29.80;21.70;98710.31;4408365;32;34987;-88
2022/06/21 16:08:20;;;;;;;;;;;;;;;28.71;22.57;98719.81;4408477;32;33244;-90
2022/06/21 16:10:48;;;;;;;;;;;;;;;29.07;23.35;98717.28;4408860;32;35200;-92
2022/06/21 16:13:17;;;;;;;;;;;;;;;29.01;22.61;98711.53;4409459;32;35797;-88
2022/06/21 16:15:45;;;;;;;;;;;;;;;28.83;24.42;98727.00;4408985;32;33739;-92
2022/06/21 16:18:13;;;;;;;;;;;;;;;28.72;24.59;98732.22;4409470;32;34371;-86
2022/06/21 16:20:45;;;;;;;;;;;;;;;28.81;24.02;98731.56;4409181;32;34751;-92
2022/06/21 16:23:31;;;;;;;;;;;;;;;28.90;23.40;98740.72;4408856;32;35279;-86
2022/06/21 16:26:02;;;;;;;;;;;;;;;29.37;23.61;98741.94;4423210;32;34324;-90
2022/06/21 16:28:32;;;;;;;;;;;;;;;28.90;23.72;98744.25;4408549;32;34233;-89
2022/06/21 16:33:54;;;;;;;;;;;;;;;28.72;22.31;98748.22;4395925;32;34379;-87
2022/06/21 16:36:35;;;;;;;;;;;;;;;27.75;24.23;98745.72;4393623;32;34378;-90
2022/06/21 16:39:08;;;;;;;;;;;;;;;28.40;24.17;98743.22;4393576;32;33107;-92
2022/06/21 16:44:42;;;;;;;;;;;;;;;27.73;23.75;98743.13;4407209;32;34156;-88
2022/06/21 16:47:19;;;;;;;;;;;;;;;28.03;23.10;98740.28;4419897;32;34025;-84
2022/06/21 16:49:54;;;;;;;;;;;;;;;28.26;23.64;98740.59;4408431;32;34087;-87
2022/06/21 16:52:26;;;;;;;;;;;;;;;27.83;23.52;98728.28;4408391;32;33726;-88
2022/06/21 16:55:03;;;;;;;;;;;;;;;27.83;24.11;98738.94;4395386;32;33132;-94
2022/06/21 16:57:33;;;;;;;;;;;;;;;28.50;23.00;98749.66;4409516;32;34002;-85
2022/06/21 17:00:01;;;;;;;;;;;;;;;28.49;23.21;98741.75;4409236;32;33282;-85
2022/06/21 17:02:31;;;;;;;;;;;;;;;28.79;23.22;98733.47;4423120;32;33477;-91
2022/06/21 17:05:11;;;;;;;;;;;;;;;28.80;21.64;98729.84;4407860;32;35174;-91
2022/06/21 17:07:47;;;;;;;;;;;;;;;28.55;22.40;98742.19;4422819;32;34416;-93
2022/06/21 17:10:23;;;;;;;;;;;;;;;27.40;23.76;98746.13;4408758;32;33520;-86
2022/06/21 17:12:50;;;;;;;;;;;;;;;28.25;22.72;98744.22;4422335;32;35163;-90
2022/06/21 17:15:19;;;;;;;;;;;;;;;27.74;23.30;98741.31;4421927;32;34531;-92
2022/06/21 17:17:49;;;;;;;;;;;;;;;28.46;22.78;98753.50;4407978;32;34109;-88
2022/06/21 17:20:17;;;;;;;;;;;;;;;27.87;23.77;98748.44;4421074;32;34210;-87
2022/06/21 17:23:14;;;;;;;;;;;;;;;28.28;22.92;98744.03;4421687;32;34853;-82
2022/06/21 17:25:44;;;;;;;;;;;;;;;27.62;22.92;98730.50;4399871;32;35413;-86
2022/06/21 17:28:15;;;;;;;;;;;;;;;27.68;23.90;98745.22;4393448;32;35126;-84
2022/06/21 17:30:51;;;;;;;;;;;;;;;27.87;23.01;98745.78;4414831;32;33524;-85
2022/06/21 17:33:19;;;;;;;;;;;;;;;26.36;24.45;98745.25;4380519;32;33080;-86
2022/06/21 17:35:49;;;;;;;;;;;;;;;27.48;23.05;98742.97;4403546;32;33529;-89
2022/06/21 17:38:28;;;;;;;;;;;;;;;27.42;24.53;98744.22;4395328;32;34469;-85
2022/06/21 17:40:58;;;;;;;;;;;;;;;27.94;22.32;98751.56;4407598;32;33908;-87
2022/06/21 17:43:25;;;;;;;;;;;;;;;27.49;23.23;98742.87;4407638;32;34336;-86
2022/06/21 17:45:55;;;;;;;;;;;;;;;27.98;23.00;98749.56;4421943;32;35279;-90
2022/06/21 17:48:24;;;;;;;;;;;;;;;28.03;23.60;98766.09;4409075;32;34130;-94
2022/06/21 17:50:58;;;;;;;;;;;;;;;27.71;23.18;98779.66;4407798;32;33098;-90
2022/06/21 17:53:39;;;;;;;;;;;;;;;27.42;23.77;98792.97;4408384;32;34895;-90
2022/06/21 17:56:10;;;;;;;;;;;;;;;27.30;23.32;98793.75;4419337;32;33683;-84
2022/06/21 17:58:40;;;;;;;;;;;;;;;27.48;23.44;98796.22;4392460;32;33938;-84
2022/06/21 18:01:21;;;;;;;;;;;;;;;28.05;22.64;98799.69;4393173;32;32946;-88
2022/06/21 18:04:08;;;;;;;;;;;;;;;28.06;22.58;98803.22;4393070;32;34144;-94
2022/06/21 18:06:39;;;;;;;;;;;;;;;28.03;22.98;98798.06;4407212;32;34747;-92
2022/06/21 18:09:16;;;;;;;;;;;;;;;28.67;22.46;98809.00;4397972;32;34852;-90
2022/06/21 18:12:01;;;;;;;;;;;;;;;28.20;23.24;98810.31;4408254;32;31738;-89
2022/06/21 18:14:31;;;;;;;;;;;;;;;27.67;23.33;98809.25;4408251;32;35237;-90
2022/06/21 18:17:17;;;;;;;;;;;;;;;28.14;23.25;98793.75;4422139;32;34689;-90
2022/06/21 18:19:45;;;;;;;;;;;;;;;28.54;22.58;98788.50;4421803;32;34978;-93
2022/06/21 18:22:24;;;;;;;;;;;;;;;29.11;22.42;98794.50;4423933;32;34135;-88
2022/06/21 18:25:05;;;;;;;;;;;;;;;28.80;22.72;98804.56;4412920;32;33172;-92
2022/06/21 18:27:47;;;;;;;;;;;;;;;29.27;22.15;98787.09;4410803;32;33911;-95
2022/06/21 18:30:18;;;;;;;;;;;;;;;29.80;22.07;98790.47;4411210;32;33636;-88
2022/06/21 18:32:55;;;;;;;;;;;;;;;29.46;22.15;98782.19;4425805;32;34291;-95
2022/06/21 18:35:24;;;;;;;;;;;;;;;28.99;22.19;98777.50;4425212;32;34442;-85
2022/06/21 18:37:57;;;;;;;;;;;;;;;29.36;21.70;98777.59;4409711;32;34573;-94
2022/06/21 18:40:27;;;;;;;;;;;;;;;28.79;22.72;98784.16;4424924;32;34904;-95
2022/06/21 18:42:55;;;;;;;;;;;;;;;29.13;22.26;98779.19;4424884;32;34247;-84
2022/06/21 18:45:30;;;;;;;;;;;;;;;29.24;22.15;98768.63;4423139;32;35625;-96
2022/06/21 18:48:16;;;;;;;;;;;;;;;29.07;22.21;98776.00;4422701;32;34941;-94
2022/06/21 18:50:50;;;;;;;;;;;;;;;29.59;22.08;98771.53;4424029;32;36438;-92
2022/06/21 18:53:23;;;;;;;;;;;;;;;29.50;22.37;98774.81;4408460;32;33516;-91
2022/06/21 18:55:51;;;;;;;;;;;;;;;29.70;21.65;98762.72;4422591;32;35142;-87
2022/06/21 18:58:29;;;;;;;;;;;;;;;29.46;22.33;98776.84;4421824;32;34382;-85
2022/06/21 19:01:06;;;;;;;;;;;;;;;29.77;22.24;98783.53;4407570;32;34659;-90
2022/06/21 19:03:42;;;;;;;;;;;;;;;29.68;22.43;98776.19;4407590;32;33558;-86
2022/06/21 19:09:22;;;;;;;;;;;;;;;29.57;22.85;98781.41;4411315;32;34470;-90
2022/06/21 19:12:05;;;;;;;;;;;;;;;29.23;21.87;98796.28;4423522;32;34071;-85
2022/06/21 19:14:46;;;;;;;;;;;;;;;29.45;22.49;98793.81;4409303;32;33503;-85
2022/06/21 19:17:27;;;;;;;;;;;;;;;29.51;22.71;98801.41;4423388;32;34727;-86
2022/06/21 19:20:12;;;;;;;;;;;;;;;29.62;22.52;98807.81;4410388;32;34259;-93
2022/06/21 19:22:57;;;;;;;;;;;;;;;29.56;22.59;98815.28;4423875;32;33920;-90
2022/06/21 19:25:43;;;;;;;;;;;;;;;29.55;22.98;98816.25;4410517;32;34449;-92
2022/06/21 19:28:10;;;;;;;;;;;;;;;29.53;22.75;98825.34;4424383;32;34137;-91
2022/06/21 19:30:41;;;;;;;;;;;;;;;29.35;22.96;98838.16;4409392;32;34499;-92
2022/06/21 19:33:12;;;;;;;;;;;;;;;29.11;23.20;98831.84;4410635;32;35213;-90
2022/06/21 19:35:52;;;;;;;;;;;;;;;28.96;23.59;98837.25;4410290;32;32794;-88
2022/06/21 19:38:34;;;;;;;;;;;;;;;28.91;23.61;98833.19;4423359;32;35210;-90
2022/06/21 19:41:04;;;;;;;;;;;;;;;28.98;23.17;98830.03;4423552;32;35101;-91
2022/06/21 19:43:38;;;;;;;;;;;;;;;28.88;23.40;98834.25;4424970;32;34397;-92
2022/06/21 19:46:22;;;;;;;;;;;;;;;28.92;23.27;98825.06;4425496;32;32957;-92
2022/06/21 19:48:51;;;;;;;;;;;;;;;28.44;23.82;98827.37;4423984;32;33837;-89
2022/06/21 19:51:18;;;;;;;;;;;;;;;28.45;23.65;98829.13;4409749;32;35118;-91
2022/06/21 19:53:51;;;;;;;;;;;;;;;27.88;23.58;98827.44;4423379;32;34070;-91
2022/06/21 19:56:18;;;;;;;;;;;;;;;28.23;23.61;98826.97;4410026;32;33437;-91
2022/06/21 19:58:47;;;;;;;;;;;;;;;28.43;23.27;98835.50;4423917;32;35084;-93
2022/06/21 20:01:14;;;;;;;;;;;;;;;28.48;23.54;98838.72;4409161;32;34511;-88
2022/06/21 20:03:52;;;;;;;;;;;;;;;28.43;23.18;98830.16;4423351;32;33926;-91
2022/06/21 20:06:20;;;;;;;;;;;;;;;28.33;23.93;98827.19;4423012;32;34039;-96
2022/06/21 20:08:58;;;;;;;;;;;;;;;28.17;24.01;98829.16;4399508;32;34592;-93
2022/06/21 20:11:32;;;;;;;;;;;;;;;27.91;24.54;98834.34;4411404;32;34349;-96
2022/06/21 20:14:20;;;;;;;;;;;;;;;27.78;24.47;98825.44;4409737;32;33889;-93
2022/06/21 20:17:06;;;;;;;;;;;;;;;27.95;24.28;98835.87;4416377;32;33298;-96
2022/06/21 20:19:41;;;;;;;;;;;;;;;27.50;24.53;98834.25;4423776;32;34544;-91
2022/06/21 20:22:14;;;;;;;;;;;;;;;27.44;24.65;98819.53;4411344;32;35096;-95
2022/06/21 20:24:51;;;;;;;;;;;;;;;27.16;24.34;98817.69;4423750;32;35007;-88
2022/06/21 20:27:24;;;;;;;;;;;;;;;27.49;24.82;98808.59;4408727;32;34275;-89